sensor_id;sensor_type;location;lat;lon;timestamp;temperature;humidity
14277;DHT22;7222;57.346;12.150;2023-04-01T00:00:25;1.90;99.90
14277;DHT22;7222;57.346;12.150;2023-04-01T00:02:52;1.90;99.90
14277;DHT22;7222;57.346;12.150;2023-04-01T00:05:19;1.80;99.90
14277;DHT22;7222;57.346;12.150;2023-04-01T00:07:46;1.80;99.90
14277;DHT22;7222;57.346;12.150;2023-04-01T00:10:14;1.90;99.90
14277;DHT22;7222;57.346;12.150;2023-04-01T00:12:42;1.80;99.90
14277;DHT22;7222;57.346;12.150;2023-04-01T00:15:10;1.70;99.90
14277;DHT22;7222;57.346;12.150;2023-04-01T00:17:38;1.80;99.90
14277;DHT22;7222;57.346;12.150;2023-04-01T00:20:07;1.70;99.90
14277;DHT22;7222;57.346;12.150;2023-04-01T00:22:35;1.70;99.90
14277;DHT22;7222;57.346;12.150;2023-04-01T00:25:03;1.70;99.90
14277;DHT22;7222;57.346;12.150;2023-04-01T00:27:30;1.60;99.90
14277;DHT22;7222;57.346;12.150;2023-04-01T00:29:58;1.70;99.90
14277;DHT22;7222;57.346;12.150;2023-04-01T00:32:25;1.80;99.90
14277;DHT22;7222;57.346;12.150;2023-04-01T00:34:53;1.70;99.90
14277;DHT22;7222;57.346;12.150;2023-04-01T00:37:20;1.60;99.90
14277;DHT22;7222;57.346;12.150;2023-04-01T00:39:48;1.50;99.90
14277;DHT22;7222;57.346;12.150;2023-04-01T00:42:15;1.60;99.90
14277;DHT22;7222;57.346;12.150;2023-04-01T00:44:42;1.50;99.90
14277;DHT22;7222;57.346;12.150;2023-04-01T00:47:11;1.50;99.90
14277;DHT22;7222;57.346;12.150;2023-04-01T00:49:40;1.50;99.90
14277;DHT22;7222;57.346;12.150;2023-04-01T00:52:12;1.50;99.90
14277;DHT22;7222;57.346;12.150;2023-04-01T00:54:41;1.40;99.90
14277;DHT22;7222;57.346;12.150;2023-04-01T00:57:12;1.40;99.90
14277;DHT22;7222;57.346;12.150;2023-04-01T00:59:43;1.50;99.90
14277;DHT22;7222;57.346;12.150;2023-04-01T01:02:14;1.30;99.90
14277;DHT22;7222;57.346;12.150;2023-04-01T01:04:42;1.30;99.90
14277;DHT22;7222;57.346;12.150;2023-04-01T01:07:18;1.20;99.90
14277;DHT22;7222;57.346;12.150;2023-04-01T01:09:52;1.20;99.90
14277;DHT22;7222;57.346;12.150;2023-04-01T01:12:25;1.20;99.90
14277;DHT22;7222;57.346;12.150;2023-04-01T01:15:05;1.30;99.90
14277;DHT22;7222;57.346;12.150;2023-04-01T01:17:44;1.20;99.90
14277;DHT22;7222;57.346;12.150;2023-04-01T01:20:42;1.10;99.90
14277;DHT22;7222;57.346;12.150;2023-04-01T01:26:39;1.00;99.90
14277;DHT22;7222;57.346;12.150;2023-04-01T01:31:52;1.00;99.90
14277;DHT22;7222;57.346;12.150;2023-04-01T01:34:27;0.90;99.90
14277;DHT22;7222;57.346;12.150;2023-04-01T01:37:03;0.90;99.90
14277;DHT22;7222;57.346;12.150;2023-04-01T01:39:34;0.90;99.90
14277;DHT22;7222;57.346;12.150;2023-04-01T01:42:04;0.80;99.90
14277;DHT22;7222;57.346;12.150;2023-04-01T01:44:33;0.80;99.90
14277;DHT22;7222;57.346;12.150;2023-04-01T01:47:02;0.80;99.90
14277;DHT22;7222;57.346;12.150;2023-04-01T01:49:31;0.70;99.90
14277;DHT22;7222;57.346;12.150;2023-04-01T01:52:00;0.70;99.90
14277;DHT22;7222;57.346;12.150;2023-04-01T01:54:27;0.60;99.90
14277;DHT22;7222;57.346;12.150;2023-04-01T01:57:00;0.60;99.90
14277;DHT22;7222;57.346;12.150;2023-04-01T01:59:30;0.50;99.90
14277;DHT22;7222;57.346;12.150;2023-04-01T02:01:59;0.40;99.90
14277;DHT22;7222;57.346;12.150;2023-04-01T02:04:27;0.60;99.90
14277;DHT22;7222;57.346;12.150;2023-04-01T02:06:59;0.40;99.90
14277;DHT22;7222;57.346;12.150;2023-04-01T02:09:29;0.40;99.90
14277;DHT22;7222;57.346;12.150;2023-04-01T02:11:58;0.40;99.90
14277;DHT22;7222;57.346;12.150;2023-04-01T02:14:28;0.30;99.90
14277;DHT22;7222;57.346;12.150;2023-04-01T02:16:58;0.30;99.90
14277;DHT22;7222;57.346;12.150;2023-04-01T02:19:29;0.20;99.90
14277;DHT22;7222;57.346;12.150;2023-04-01T02:22:01;0.30;99.90
14277;DHT22;7222;57.346;12.150;2023-04-01T02:24:31;0.30;99.90
14277;DHT22;7222;57.346;12.150;2023-04-01T02:27:00;0.10;99.90
14277;DHT22;7222;57.346;12.150;2023-04-01T02:29:27;0.10;99.90
14277;DHT22;7222;57.346;12.150;2023-04-01T02:31:54;0.20;99.90
14277;DHT22;7222;57.346;12.150;2023-04-01T02:34:23;0.10;99.90
14277;DHT22;7222;57.346;12.150;2023-04-01T02:36:51;0.00;99.90
14277;DHT22;7222;57.346;12.150;2023-04-01T02:39:20;0.00;99.90
14277;DHT22;7222;57.346;12.150;2023-04-01T02:41:48;-0.10;99.90
14277;DHT22;7222;57.346;12.150;2023-04-01T02:44:15;-0.10;99.90
14277;DHT22;7222;57.346;12.150;2023-04-01T02:46:42;-0.20;99.90
14277;DHT22;7222;57.346;12.150;2023-04-01T02:49:09;-0.20;99.90
14277;DHT22;7222;57.346;12.150;2023-04-01T02:51:36;-0.20;99.90
14277;DHT22;7222;57.346;12.150;2023-04-01T02:54:03;-0.20;99.90
14277;DHT22;7222;57.346;12.150;2023-04-01T02:56:31;-0.40;99.90
14277;DHT22;7222;57.346;12.150;2023-04-01T02:58:58;-0.40;99.90
14277;DHT22;7222;57.346;12.150;2023-04-01T03:01:25;-0.40;99.90
14277;DHT22;7222;57.346;12.150;2023-04-01T03:03:52;-0.50;99.90
14277;DHT22;7222;57.346;12.150;2023-04-01T03:06:19;-0.50;99.90
14277;DHT22;7222;57.346;12.150;2023-04-01T03:08:46;-0.60;99.90
14277;DHT22;7222;57.346;12.150;2023-04-01T03:11:13;-0.60;99.90
14277;DHT22;7222;57.346;12.150;2023-04-01T03:13:42;-0.60;99.90
14277;DHT22;7222;57.346;12.150;2023-04-01T03:16:09;-0.60;99.90
14277;DHT22;7222;57.346;12.150;2023-04-01T03:18:36;-0.70;99.90
14277;DHT22;7222;57.346;12.150;2023-04-01T03:21:14;-0.80;99.90
14277;DHT22;7222;57.346;12.150;2023-04-01T03:23:41;-0.80;99.90
14277;DHT22;7222;57.346;12.150;2023-04-01T03:26:08;-0.90;99.90
14277;DHT22;7222;57.346;12.150;2023-04-01T03:28:35;-0.90;99.90
14277;DHT22;7222;57.346;12.150;2023-04-01T03:31:04;-0.90;99.90
14277;DHT22;7222;57.346;12.150;2023-04-01T03:33:31;-1.00;99.90
14277;DHT22;7222;57.346;12.150;2023-04-01T03:35:58;-1.00;99.90
14277;DHT22;7222;57.346;12.150;2023-04-01T03:38:26;-1.00;99.90
14277;DHT22;7222;57.346;12.150;2023-04-01T03:40:53;-1.00;99.90
14277;DHT22;7222;57.346;12.150;2023-04-01T03:43:20;-1.10;99.90
14277;DHT22;7222;57.346;12.150;2023-04-01T03:45:49;-1.10;99.90
14277;DHT22;7222;57.346;12.150;2023-04-01T03:48:17;-1.20;99.90
14277;DHT22;7222;57.346;12.150;2023-04-01T03:50:44;-1.20;99.90
14277;DHT22;7222;57.346;12.150;2023-04-01T03:53:11;-1.20;99.90
14277;DHT22;7222;57.346;12.150;2023-04-01T03:55:38;-1.30;99.90
14277;DHT22;7222;57.346;12.150;2023-04-01T03:58:06;-1.30;99.90
14277;DHT22;7222;57.346;12.150;2023-04-01T04:00:34;-1.30;99.90
14277;DHT22;7222;57.346;12.150;2023-04-01T04:03:01;-1.40;99.90
14277;DHT22;7222;57.346;12.150;2023-04-01T04:05:29;-1.40;99.90
14277;DHT22;7222;57.346;12.150;2023-04-01T04:07:56;-1.50;99.90
14277;DHT22;7222;57.346;12.150;2023-04-01T04:10:23;-1.40;99.90
14277;DHT22;7222;57.346;12.150;2023-04-01T04:12:51;-1.50;99.90
14277;DHT22;7222;57.346;12.150;2023-04-01T04:15:18;-1.60;99.90
14277;DHT22;7222;57.346;12.150;2023-04-01T04:17:46;-1.50;99.90
14277;DHT22;7222;57.346;12.150;2023-04-01T04:20:13;-1.70;99.90
14277;DHT22;7222;57.346;12.150;2023-04-01T04:22:41;-1.60;99.90
14277;DHT22;7222;57.346;12.150;2023-04-01T04:25:08;-1.60;99.90
14277;DHT22;7222;57.346;12.150;2023-04-01T04:27:35;-1.70;99.90
14277;DHT22;7222;57.346;12.150;2023-04-01T04:30:03;-1.80;99.90
14277;DHT22;7222;57.346;12.150;2023-04-01T04:32:30;-1.80;99.90
14277;DHT22;7222;57.346;12.150;2023-04-01T04:34:57;-1.80;99.90
14277;DHT22;7222;57.346;12.150;2023-04-01T04:37:25;-1.90;99.90
14277;DHT22;7222;57.346;12.150;2023-04-01T04:39:53;-1.80;99.90
14277;DHT22;7222;57.346;12.150;2023-04-01T04:42:20;-1.90;99.90
14277;DHT22;7222;57.346;12.150;2023-04-01T04:44:47;-1.90;99.90
14277;DHT22;7222;57.346;12.150;2023-04-01T04:47:14;-1.90;99.90
14277;DHT22;7222;57.346;12.150;2023-04-01T04:49:41;-2.00;66.10
14277;DHT22;7222;57.346;12.150;2023-04-01T04:52:08;-2.00;99.90
14277;DHT22;7222;57.346;12.150;2023-04-01T04:54:35;-2.00;99.90
14277;DHT22;7222;57.346;12.150;2023-04-01T04:57:03;-2.10;1.00
14277;DHT22;7222;57.346;12.150;2023-04-01T04:59:30;-2.00;35.60
14277;DHT22;7222;57.346;12.150;2023-04-01T05:01:57;-2.10;1.00
14277;DHT22;7222;57.346;12.150;2023-04-01T05:04:25;-2.10;1.00
14277;DHT22;7222;57.346;12.150;2023-04-01T05:06:52;-2.20;1.00
14277;DHT22;7222;57.346;12.150;2023-04-01T05:09:18;-2.20;1.00
14277;DHT22;7222;57.346;12.150;2023-04-01T05:11:46;-2.10;1.00
14277;DHT22;7222;57.346;12.150;2023-04-01T05:14:15;-2.10;1.00
14277;DHT22;7222;57.346;12.150;2023-04-01T05:16:42;-2.20;1.00
14277;DHT22;7222;57.346;12.150;2023-04-01T05:19:09;-2.10;1.00
14277;DHT22;7222;57.346;12.150;2023-04-01T05:21:36;-2.20;1.00
14277;DHT22;7222;57.346;12.150;2023-04-01T05:24:07;-2.10;1.00
14277;DHT22;7222;57.346;12.150;2023-04-01T05:26:35;-2.20;99.90
14277;DHT22;7222;57.346;12.150;2023-04-01T05:29:02;-2.10;1.00
14277;DHT22;7222;57.346;12.150;2023-04-01T05:31:30;-2.10;99.90
14277;DHT22;7222;57.346;12.150;2023-04-01T05:33:57;-2.20;99.90
14277;DHT22;7222;57.346;12.150;2023-04-01T05:36:24;-2.10;99.90
14277;DHT22;7222;57.346;12.150;2023-04-01T05:38:51;-2.10;99.90
14277;DHT22;7222;57.346;12.150;2023-04-01T05:41:20;-2.20;1.00
14277;DHT22;7222;57.346;12.150;2023-04-01T05:43:47;-2.10;43.00
14277;DHT22;7222;57.346;12.150;2023-04-01T05:46:14;-2.10;1.00
14277;DHT22;7222;57.346;12.150;2023-04-01T05:48:43;-2.10;1.00
14277;DHT22;7222;57.346;12.150;2023-04-01T05:51:12;-2.00;1.00
14277;DHT22;7222;57.346;12.150;2023-04-01T05:53:39;-2.00;99.90
14277;DHT22;7222;57.346;12.150;2023-04-01T05:56:06;-2.00;99.90
14277;DHT22;7222;57.346;12.150;2023-04-01T05:58:34;-1.90;99.90
14277;DHT22;7222;57.346;12.150;2023-04-01T06:01:02;-1.90;99.90
14277;DHT22;7222;57.346;12.150;2023-04-01T06:03:29;-1.90;1.00
14277;DHT22;7222;57.346;12.150;2023-04-01T06:05:58;-1.80;69.00
14277;DHT22;7222;57.346;12.150;2023-04-01T06:08:27;-1.80;1.00
14277;DHT22;7222;57.346;12.150;2023-04-01T06:11:12;-1.70;1.00
14277;DHT22;7222;57.346;12.150;2023-04-01T06:13:56;-1.80;1.00
14277;DHT22;7222;57.346;12.150;2023-04-01T06:16:38;-1.70;1.00
14277;DHT22;7222;57.346;12.150;2023-04-01T06:19:14;-1.70;1.00
14277;DHT22;7222;57.346;12.150;2023-04-01T06:22:20;-1.60;1.00
14277;DHT22;7222;57.346;12.150;2023-04-01T06:25:16;-1.50;99.90
14277;DHT22;7222;57.346;12.150;2023-04-01T06:27:59;-1.40;99.90
14277;DHT22;7222;57.346;12.150;2023-04-01T06:30:38;-1.40;29.60
14277;DHT22;7222;57.346;12.150;2023-04-01T06:33:26;-1.40;1.00
14277;DHT22;7222;57.346;12.150;2023-04-01T06:36:06;-1.30;99.90
14277;DHT22;7222;57.346;12.150;2023-04-01T06:38:45;-1.20;1.00
14277;DHT22;7222;57.346;12.150;2023-04-01T06:41:27;-1.20;99.90
14277;DHT22;7222;57.346;12.150;2023-04-01T06:44:08;-1.10;15.10
14277;DHT22;7222;57.346;12.150;2023-04-01T06:46:43;-1.00;1.00
14277;DHT22;7222;57.346;12.150;2023-04-01T06:49:24;-1.00;99.90
14277;DHT22;7222;57.346;12.150;2023-04-01T06:51:59;-0.90;1.00
14277;DHT22;7222;57.346;12.150;2023-04-01T06:54:33;-0.80;99.90
14277;DHT22;7222;57.346;12.150;2023-04-01T06:57:08;-0.70;1.00
14277;DHT22;7222;57.346;12.150;2023-04-01T06:59:37;-0.60;1.00
14277;DHT22;7222;57.346;12.150;2023-04-01T07:02:11;-0.60;1.00
14277;DHT22;7222;57.346;12.150;2023-04-01T07:04:45;-0.50;1.00
14277;DHT22;7222;57.346;12.150;2023-04-01T07:07:19;-0.40;1.00
14277;DHT22;7222;57.346;12.150;2023-04-01T07:09:53;-0.40;12.20
14277;DHT22;7222;57.346;12.150;2023-04-01T07:12:28;-0.30;1.00
14277;DHT22;7222;57.346;12.150;2023-04-01T07:15:03;-0.20;31.40
14277;DHT22;7222;57.346;12.150;2023-04-01T07:17:33;-0.10;1.00
14277;DHT22;7222;57.346;12.150;2023-04-01T07:20:10;0.00;1.20
14277;DHT22;7222;57.346;12.150;2023-04-01T07:22:40;0.10;1.00
14277;DHT22;7222;57.346;12.150;2023-04-01T07:25:14;0.20;99.90
14277;DHT22;7222;57.346;12.150;2023-04-01T07:27:42;0.40;99.90
14277;DHT22;7222;57.346;12.150;2023-04-01T07:30:14;0.50;1.00
14277;DHT22;7222;57.346;12.150;2023-04-01T07:32:45;0.60;1.00
14277;DHT22;7222;57.346;12.150;2023-04-01T07:35:22;0.70;99.90
14277;DHT22;7222;57.346;12.150;2023-04-01T07:38:13;0.90;85.30
14277;DHT22;7222;57.346;12.150;2023-04-01T07:40:47;1.00;99.90
14277;DHT22;7222;57.346;12.150;2023-04-01T07:43:46;1.10;1.00
14277;DHT22;7222;57.346;12.150;2023-04-01T07:46:27;1.20;99.90
14277;DHT22;7222;57.346;12.150;2023-04-01T07:49:01;1.40;1.00
14277;DHT22;7222;57.346;12.150;2023-04-01T07:51:35;1.60;99.90
14277;DHT22;7222;57.346;12.150;2023-04-01T07:54:06;1.70;99.90
14277;DHT22;7222;57.346;12.150;2023-04-01T07:56:41;1.90;1.00
14277;DHT22;7222;57.346;12.150;2023-04-01T07:59:15;2.00;99.90
14277;DHT22;7222;57.346;12.150;2023-04-01T08:01:50;2.10;1.00
14277;DHT22;7222;57.346;12.150;2023-04-01T08:04:28;2.30;99.90
14277;DHT22;7222;57.346;12.150;2023-04-01T08:07:05;2.40;99.90
14277;DHT22;7222;57.346;12.150;2023-04-01T08:09:38;2.50;99.90
14277;DHT22;7222;57.346;12.150;2023-04-01T08:12:17;2.70;99.90
14277;DHT22;7222;57.346;12.150;2023-04-01T08:14:56;2.80;99.90
14277;DHT22;7222;57.346;12.150;2023-04-01T08:17:31;3.00;1.00
14277;DHT22;7222;57.346;12.150;2023-04-01T08:20:12;3.10;99.90
14277;DHT22;7222;57.346;12.150;2023-04-01T08:22:42;3.30;99.90
14277;DHT22;7222;57.346;12.150;2023-04-01T08:25:17;3.50;1.00
14277;DHT22;7222;57.346;12.150;2023-04-01T08:27:51;3.70;99.90
14277;DHT22;7222;57.346;12.150;2023-04-01T08:30:23;3.80;1.00
14277;DHT22;7222;57.346;12.150;2023-04-01T08:32:54;4.10;1.00
14277;DHT22;7222;57.346;12.150;2023-04-01T08:35:26;4.10;1.00
14277;DHT22;7222;57.346;12.150;2023-04-01T08:38:00;4.20;1.00
14277;DHT22;7222;57.346;12.150;2023-04-01T08:40:58;4.30;1.00
14277;DHT22;7222;57.346;12.150;2023-04-01T08:43:59;4.60;1.00
14277;DHT22;7222;57.346;12.150;2023-04-01T08:46:56;4.70;99.90
14277;DHT22;7222;57.346;12.150;2023-04-01T08:49:41;4.90;99.90
14277;DHT22;7222;57.346;12.150;2023-04-01T08:52:26;5.10;99.90
14277;DHT22;7222;57.346;12.150;2023-04-01T09:00:48;5.80;99.90
14277;DHT22;7222;57.346;12.150;2023-04-01T09:03:41;6.00;20.80
14277;DHT22;7222;57.346;12.150;2023-04-01T09:06:26;6.30;1.00
14277;DHT22;7222;57.346;12.150;2023-04-01T09:18:19;6.70;99.90
14277;DHT22;7222;57.346;12.150;2023-04-01T09:21:10;6.90;99.90
14277;DHT22;7222;57.346;12.150;2023-04-01T09:27:01;7.20;94.60
14277;DHT22;7222;57.346;12.150;2023-04-01T09:29:49;7.40;99.90
14277;DHT22;7222;57.346;12.150;2023-04-01T09:32:34;7.40;59.60
14277;DHT22;7222;57.346;12.150;2023-04-01T09:35:22;7.30;1.00
14277;DHT22;7222;57.346;12.150;2023-04-01T09:37:57;7.60;1.00
14277;DHT22;7222;57.346;12.150;2023-04-01T09:40:37;7.70;1.00
14277;DHT22;7222;57.346;12.150;2023-04-01T09:43:25;7.90;99.90
14277;DHT22;7222;57.346;12.150;2023-04-01T09:46:02;8.10;1.00
14277;DHT22;7222;57.346;12.150;2023-04-01T09:49:04;8.20;99.90
14277;DHT22;7222;57.346;12.150;2023-04-01T09:51:38;8.50;1.00
14277;DHT22;7222;57.346;12.150;2023-04-01T09:54:22;8.40;99.90
14277;DHT22;7222;57.346;12.150;2023-04-01T09:57:22;8.50;99.90
14277;DHT22;7222;57.346;12.150;2023-04-01T10:06:27;9.00;99.90
14277;DHT22;7222;57.346;12.150;2023-04-01T10:12:55;9.70;99.90
14277;DHT22;7222;57.346;12.150;2023-04-01T10:15:50;9.90;99.90
14277;DHT22;7222;57.346;12.150;2023-04-01T10:27:49;11.20;99.90
14277;DHT22;7222;57.346;12.150;2023-04-01T10:30:46;11.20;1.00
14277;DHT22;7222;57.346;12.150;2023-04-01T10:36:47;11.50;99.90
14277;DHT22;7222;57.346;12.150;2023-04-01T10:39:46;12.00;99.90
14277;DHT22;7222;57.346;12.150;2023-04-01T10:42:54;11.70;59.10
14277;DHT22;7222;57.346;12.150;2023-04-01T10:45:49;12.00;1.00
14277;DHT22;7222;57.346;12.150;2023-04-01T10:49:05;11.80;1.00
14277;DHT22;7222;57.346;12.150;2023-04-01T10:52:03;12.10;4.60
14277;DHT22;7222;57.346;12.150;2023-04-01T10:54:55;12.50;1.00
14277;DHT22;7222;57.346;12.150;2023-04-01T11:01:14;12.50;1.00
14277;DHT22;7222;57.346;12.150;2023-04-01T11:07:27;13.20;1.00
14277;DHT22;7222;57.346;12.150;2023-04-01T11:10:57;13.00;1.00
14277;DHT22;7222;57.346;12.150;2023-04-01T11:17:12;12.40;1.00
14277;DHT22;7222;57.346;12.150;2023-04-01T11:20:18;12.90;1.00
14277;DHT22;7222;57.346;12.150;2023-04-01T11:23:02;13.20;1.00
14277;DHT22;7222;57.346;12.150;2023-04-01T11:26:00;13.30;1.00
14277;DHT22;7222;57.346;12.150;2023-04-01T11:31:51;13.80;1.00
14277;DHT22;7222;57.346;12.150;2023-04-01T11:34:33;13.90;1.00
14277;DHT22;7222;57.346;12.150;2023-04-01T11:37:08;14.10;1.00
14277;DHT22;7222;57.346;12.150;2023-04-01T11:39:59;14.00;1.00
14277;DHT22;7222;57.346;12.150;2023-04-01T11:42:33;14.00;1.00
14277;DHT22;7222;57.346;12.150;2023-04-01T11:45:12;14.20;1.00
14277;DHT22;7222;57.346;12.150;2023-04-01T11:48:09;14.20;1.00
14277;DHT22;7222;57.346;12.150;2023-04-01T11:50:51;14.30;1.00
14277;DHT22;7222;57.346;12.150;2023-04-01T11:53:34;14.10;1.00
14277;DHT22;7222;57.346;12.150;2023-04-01T11:56:11;14.30;1.00
14277;DHT22;7222;57.346;12.150;2023-04-01T11:59:03;14.80;1.00
14277;DHT22;7222;57.346;12.150;2023-04-01T12:01:49;15.30;1.00
14277;DHT22;7222;57.346;12.150;2023-04-01T12:04:47;15.60;1.00
14277;DHT22;7222;57.346;12.150;2023-04-01T12:07:40;15.70;1.00
14277;DHT22;7222;57.346;12.150;2023-04-01T12:10:17;16.10;1.00
14277;DHT22;7222;57.346;12.150;2023-04-01T12:12:52;16.30;1.00
14277;DHT22;7222;57.346;12.150;2023-04-01T12:15:28;16.70;1.00
14277;DHT22;7222;57.346;12.150;2023-04-01T12:18:02;16.80;1.00
14277;DHT22;7222;57.346;12.150;2023-04-01T12:20:41;16.60;1.00
14277;DHT22;7222;57.346;12.150;2023-04-01T12:26:32;16.30;1.00
14277;DHT22;7222;57.346;12.150;2023-04-01T12:29:11;16.70;1.00
14277;DHT22;7222;57.346;12.150;2023-04-01T12:31:51;16.40;1.00
14277;DHT22;7222;57.346;12.150;2023-04-01T12:34:45;16.70;1.00
14277;DHT22;7222;57.346;12.150;2023-04-01T12:37:20;16.20;1.00
14277;DHT22;7222;57.346;12.150;2023-04-01T12:40:14;16.80;1.00
14277;DHT22;7222;57.346;12.150;2023-04-01T12:42:55;17.00;1.00
14277;DHT22;7222;57.346;12.150;2023-04-01T12:45:30;17.00;1.00
14277;DHT22;7222;57.346;12.150;2023-04-01T12:54:18;17.50;1.00
14277;DHT22;7222;57.346;12.150;2023-04-01T12:57:02;17.10;1.00
14277;DHT22;7222;57.346;12.150;2023-04-01T13:00:00;17.10;1.00
14277;DHT22;7222;57.346;12.150;2023-04-01T13:02:39;17.10;1.00
14277;DHT22;7222;57.346;12.150;2023-04-01T13:05:30;17.30;1.00
14277;DHT22;7222;57.346;12.150;2023-04-01T13:08:20;17.70;1.00
14277;DHT22;7222;57.346;12.150;2023-04-01T13:11:08;17.50;1.00
14277;DHT22;7222;57.346;12.150;2023-04-01T13:16:45;17.80;1.00
14277;DHT22;7222;57.346;12.150;2023-04-01T13:19:19;17.80;1.00
14277;DHT22;7222;57.346;12.150;2023-04-01T13:21:53;17.50;1.00
14277;DHT22;7222;57.346;12.150;2023-04-01T13:24:40;17.40;1.00
14277;DHT22;7222;57.346;12.150;2023-04-01T13:27:18;17.80;1.00
14277;DHT22;7222;57.346;12.150;2023-04-01T13:29:55;17.60;1.00
14277;DHT22;7222;57.346;12.150;2023-04-01T13:32:30;18.00;1.00
14277;DHT22;7222;57.346;12.150;2023-04-01T13:35:13;18.10;1.00
14277;DHT22;7222;57.346;12.150;2023-04-01T13:37:54;18.50;1.00
14277;DHT22;7222;57.346;12.150;2023-04-01T13:40:39;18.50;1.00
14277;DHT22;7222;57.346;12.150;2023-04-01T13:43:16;18.00;1.00
14277;DHT22;7222;57.346;12.150;2023-04-01T13:46:05;18.10;1.00
14277;DHT22;7222;57.346;12.150;2023-04-01T13:48:58;18.00;1.00
14277;DHT22;7222;57.346;12.150;2023-04-01T13:52:08;18.30;1.00
14277;DHT22;7222;57.346;12.150;2023-04-01T14:01:35;18.30;1.00
14277;DHT22;7222;57.346;12.150;2023-04-01T14:04:42;17.80;1.00
14277;DHT22;7222;57.346;12.150;2023-04-01T14:07:23;17.60;1.00
14277;DHT22;7222;57.346;12.150;2023-04-01T14:10:19;17.70;1.00
14277;DHT22;7222;57.346;12.150;2023-04-01T14:12:51;17.90;1.00
14277;DHT22;7222;57.346;12.150;2023-04-01T14:15:34;17.70;1.00
14277;DHT22;7222;57.346;12.150;2023-04-01T14:18:32;18.00;1.00
14277;DHT22;7222;57.346;12.150;2023-04-01T14:21:13;17.70;1.00
14277;DHT22;7222;57.346;12.150;2023-04-01T14:24:06;17.70;1.00
14277;DHT22;7222;57.346;12.150;2023-04-01T14:27:02;17.40;1.00
14277;DHT22;7222;57.346;12.150;2023-04-01T14:29:39;17.00;1.00
14277;DHT22;7222;57.346;12.150;2023-04-01T14:32:16;16.80;1.00
14277;DHT22;7222;57.346;12.150;2023-04-01T14:34:59;17.00;1.00
14277;DHT22;7222;57.346;12.150;2023-04-01T14:40:26;17.20;99.90
14277;DHT22;7222;57.346;12.150;2023-04-01T14:43:30;17.00;1.00
14277;DHT22;7222;57.346;12.150;2023-04-01T14:46:13;17.00;99.90
14277;DHT22;7222;57.346;12.150;2023-04-01T14:48:51;17.30;99.90
14277;DHT22;7222;57.346;12.150;2023-04-01T14:54:32;17.10;1.00
14277;DHT22;7222;57.346;12.150;2023-04-01T14:57:09;16.60;1.00
14277;DHT22;7222;57.346;12.150;2023-04-01T14:59:40;16.50;1.00
14277;DHT22;7222;57.346;12.150;2023-04-01T15:02:18;16.30;1.00
14277;DHT22;7222;57.346;12.150;2023-04-01T15:04:54;16.60;1.00
14277;DHT22;7222;57.346;12.150;2023-04-01T15:10:58;16.60;1.00
14277;DHT22;7222;57.346;12.150;2023-04-01T15:16:39;16.40;1.00
14277;DHT22;7222;57.346;12.150;2023-04-01T15:19:16;17.10;99.90
14277;DHT22;7222;57.346;12.150;2023-04-01T15:22:05;16.40;99.90
14277;DHT22;7222;57.346;12.150;2023-04-01T15:24:47;16.40;1.00
14277;DHT22;7222;57.346;12.150;2023-04-01T15:27:28;16.20;99.90
14277;DHT22;7222;57.346;12.150;2023-04-01T15:30:12;15.70;1.00
14277;DHT22;7222;57.346;12.150;2023-04-01T15:32:50;15.60;1.00
14277;DHT22;7222;57.346;12.150;2023-04-01T15:35:26;15.30;1.00
14277;DHT22;7222;57.346;12.150;2023-04-01T15:38:02;15.10;1.00
14277;DHT22;7222;57.346;12.150;2023-04-01T15:40:38;15.00;1.00
14277;DHT22;7222;57.346;12.150;2023-04-01T15:43:20;15.10;1.00
14277;DHT22;7222;57.346;12.150;2023-04-01T15:45:58;15.30;1.00
14277;DHT22;7222;57.346;12.150;2023-04-01T15:48:50;15.00;1.00
14277;DHT22;7222;57.346;12.150;2023-04-01T15:51:36;14.60;1.00
14277;DHT22;7222;57.346;12.150;2023-04-01T15:54:32;14.00;1.00
14277;DHT22;7222;57.346;12.150;2023-04-01T15:57:11;14.00;1.00
14277;DHT22;7222;57.346;12.150;2023-04-01T16:00:04;13.60;1.00
14277;DHT22;7222;57.346;12.150;2023-04-01T16:02:36;13.30;1.00
14277;DHT22;7222;57.346;12.150;2023-04-01T16:05:23;13.10;1.00
14277;DHT22;7222;57.346;12.150;2023-04-01T16:08:02;13.20;1.00
14277;DHT22;7222;57.346;12.150;2023-04-01T16:10:44;13.10;1.00
14277;DHT22;7222;57.346;12.150;2023-04-01T16:13:28;13.00;1.00
14277;DHT22;7222;57.346;12.150;2023-04-01T16:16:04;12.90;1.00
14277;DHT22;7222;57.346;12.150;2023-04-01T16:18:43;12.90;1.00
14277;DHT22;7222;57.346;12.150;2023-04-01T16:21:21;12.90;1.00
14277;DHT22;7222;57.346;12.150;2023-04-01T16:23:55;12.90;1.00
14277;DHT22;7222;57.346;12.150;2023-04-01T16:26:26;12.90;1.00
14277;DHT22;7222;57.346;12.150;2023-04-01T16:29:04;12.50;1.00
14277;DHT22;7222;57.346;12.150;2023-04-01T16:31:43;12.50;1.00
14277;DHT22;7222;57.346;12.150;2023-04-01T16:34:17;12.40;1.00
14277;DHT22;7222;57.346;12.150;2023-04-01T16:36:49;12.30;1.00
14277;DHT22;7222;57.346;12.150;2023-04-01T16:39:33;12.30;1.00
14277;DHT22;7222;57.346;12.150;2023-04-01T16:42:20;12.30;1.00
14277;DHT22;7222;57.346;12.150;2023-04-01T16:44:54;12.20;1.00
14277;DHT22;7222;57.346;12.150;2023-04-01T16:47:27;11.80;1.00
14277;DHT22;7222;57.346;12.150;2023-04-01T16:50:00;11.80;1.00
14277;DHT22;7222;57.346;12.150;2023-04-01T16:52:53;11.80;1.00
14277;DHT22;7222;57.346;12.150;2023-04-01T16:55:34;11.60;1.00
14277;DHT22;7222;57.346;12.150;2023-04-01T16:58:02;11.50;1.00
14277;DHT22;7222;57.346;12.150;2023-04-01T17:00:36;11.30;1.00
14277;DHT22;7222;57.346;12.150;2023-04-01T17:03:12;11.30;1.00
14277;DHT22;7222;57.346;12.150;2023-04-01T17:05:52;10.80;1.00
14277;DHT22;7222;57.346;12.150;2023-04-01T17:08:34;10.80;1.00
14277;DHT22;7222;57.346;12.150;2023-04-01T17:11:08;10.60;1.00
14277;DHT22;7222;57.346;12.150;2023-04-01T17:13:46;10.80;1.00
14277;DHT22;7222;57.346;12.150;2023-04-01T17:17:01;10.50;1.00
14277;DHT22;7222;57.346;12.150;2023-04-01T17:19:46;10.70;1.00
14277;DHT22;7222;57.346;12.150;2023-04-01T17:22:25;10.90;99.90
14277;DHT22;7222;57.346;12.150;2023-04-01T17:25:03;10.70;1.00
14277;DHT22;7222;57.346;12.150;2023-04-01T17:27:41;10.30;1.00
14277;DHT22;7222;57.346;12.150;2023-04-01T17:30:27;10.40;1.00
14277;DHT22;7222;57.346;12.150;2023-04-01T17:35:58;10.10;99.90
14277;DHT22;7222;57.346;12.150;2023-04-01T17:38:58;9.70;1.00
14277;DHT22;7222;57.346;12.150;2023-04-01T17:41:41;9.40;1.00
14277;DHT22;7222;57.346;12.150;2023-04-01T17:44:23;9.20;1.00
14277;DHT22;7222;57.346;12.150;2023-04-01T17:47:04;8.90;1.00
14277;DHT22;7222;57.346;12.150;2023-04-01T17:49:39;9.00;99.90
14277;DHT22;7222;57.346;12.150;2023-04-01T17:52:17;9.00;99.90
14277;DHT22;7222;57.346;12.150;2023-04-01T17:54:50;8.70;53.60
14277;DHT22;7222;57.346;12.150;2023-04-01T17:57:30;8.70;99.90
14277;DHT22;7222;57.346;12.150;2023-04-01T18:00:03;8.40;1.00
14277;DHT22;7222;57.346;12.150;2023-04-01T18:02:47;8.00;97.60
14277;DHT22;7222;57.346;12.150;2023-04-01T18:05:33;8.00;78.70
14277;DHT22;7222;57.346;12.150;2023-04-01T18:08:15;7.80;93.00
14277;DHT22;7222;57.346;12.150;2023-04-01T18:10:58;7.80;99.90
14277;DHT22;7222;57.346;12.150;2023-04-01T18:19:31;7.20;1.00
14277;DHT22;7222;57.346;12.150;2023-04-01T18:22:10;7.00;38.70
14277;DHT22;7222;57.346;12.150;2023-04-01T18:24:47;6.90;99.90